sensor_id;sensor_type;location;lat;lon;timestamp;P1;durP1;ratioP1;P2;durP2;ratioP2
49998;SDS011;68071;45.062;7.356;2023-04-10T00:01:17;11.32;;;10.23;;
49998;SDS011;68071;45.062;7.356;2023-04-10T00:04:21;11.32;;;10.23;;
49998;SDS011;68071;45.062;7.356;2023-04-10T00:07:26;10.97;;;9.83;;
49998;SDS011;68071;45.062;7.356;2023-04-10T00:10:30;10.40;;;9.50;;
49998;SDS011;68071;45.062;7.356;2023-04-10T00:13:35;10.30;;;9.40;;
49998;SDS011;68071;45.062;7.356;2023-04-10T00:16:39;10.07;;;9.15;;
49998;SDS011;68071;45.062;7.356;2023-04-10T00:19:43;8.77;;;7.95;;
49998;SDS011;68071;45.062;7.356;2023-04-10T00:22:47;9.77;;;8.77;;
49998;SDS011;68071;45.062;7.356;2023-04-10T00:25:52;8.77;;;7.95;;
49998;SDS011;68071;45.062;7.356;2023-04-10T00:28:55;8.93;;;8.02;;
49998;SDS011;68071;45.062;7.356;2023-04-10T00:31:59;8.48;;;7.57;;
49998;SDS011;68071;45.062;7.356;2023-04-10T00:35:03;9.10;;;8.20;;
49998;SDS011;68071;45.062;7.356;2023-04-10T00:38:08;8.75;;;7.95;;
49998;SDS011;68071;45.062;7.356;2023-04-10T00:41:11;7.53;;;6.82;;
49998;SDS011;68071;45.062;7.356;2023-04-10T00:44:15;8.65;;;7.60;;
49998;SDS011;68071;45.062;7.356;2023-04-10T00:47:20;8.38;;;7.57;;
49998;SDS011;68071;45.062;7.356;2023-04-10T00:50:24;7.75;;;7.05;;
49998;SDS011;68071;45.062;7.356;2023-04-10T00:53:28;8.32;;;7.53;;
49998;SDS011;68071;45.062;7.356;2023-04-10T00:56:33;8.68;;;7.93;;
49998;SDS011;68071;45.062;7.356;2023-04-10T00:59:37;9.10;;;8.25;;
49998;SDS011;68071;45.062;7.356;2023-04-10T01:02:41;8.85;;;7.68;;
49998;SDS011;68071;45.062;7.356;2023-04-10T01:15:28;8.15;;;7.28;;
49998;SDS011;68071;45.062;7.356;2023-04-10T01:18:41;8.57;;;7.68;;
49998;SDS011;68071;45.062;7.356;2023-04-10T01:21:53;8.60;;;7.80;;
49998;SDS011;68071;45.062;7.356;2023-04-10T01:25:06;9.00;;;8.13;;
49998;SDS011;68071;45.062;7.356;2023-04-10T01:28:48;10.55;;;9.45;;
49998;SDS011;68071;45.062;7.356;2023-04-10T01:32:18;8.80;;;8.00;;
49998;SDS011;68071;45.062;7.356;2023-04-10T01:35:24;7.88;;;7.18;;
49998;SDS011;68071;45.062;7.356;2023-04-10T01:38:31;7.53;;;6.85;;
49998;SDS011;68071;45.062;7.356;2023-04-10T01:41:36;8.10;;;6.80;;
49998;SDS011;68071;45.062;7.356;2023-04-10T01:44:44;7.63;;;6.93;;
49998;SDS011;68071;45.062;7.356;2023-04-10T01:47:49;6.90;;;6.28;;
49998;SDS011;68071;45.062;7.356;2023-04-10T01:50:55;9.00;;;7.47;;
49998;SDS011;68071;45.062;7.356;2023-04-10T01:54:00;8.10;;;7.30;;
49998;SDS011;68071;45.062;7.356;2023-04-10T01:57:06;8.00;;;7.20;;
49998;SDS011;68071;45.062;7.356;2023-04-10T02:00:18;8.30;;;7.60;;
49998;SDS011;68071;45.062;7.356;2023-04-10T02:03:22;7.88;;;7.18;;
49998;SDS011;68071;45.062;7.356;2023-04-10T02:06:40;9.02;;;8.13;;
49998;SDS011;68071;45.062;7.356;2023-04-10T02:09:57;8.75;;;7.93;;
49998;SDS011;68071;45.062;7.356;2023-04-10T02:13:07;7.82;;;7.13;;
49998;SDS011;68071;45.062;7.356;2023-04-10T02:16:13;8.27;;;7.00;;
49998;SDS011;68071;45.062;7.356;2023-04-10T02:19:19;9.82;;;8.75;;
49998;SDS011;68071;45.062;7.356;2023-04-10T02:22:29;9.27;;;8.48;;
49998;SDS011;68071;45.062;7.356;2023-04-10T02:25:34;9.90;;;8.90;;
49998;SDS011;68071;45.062;7.356;2023-04-10T02:28:39;9.68;;;8.77;;
49998;SDS011;68071;45.062;7.356;2023-04-10T02:31:44;9.20;;;8.25;;
49998;SDS011;68071;45.062;7.356;2023-04-10T02:34:50;10.18;;;9.15;;
49998;SDS011;68071;45.062;7.356;2023-04-10T02:37:54;10.32;;;9.35;;
49998;SDS011;68071;45.062;7.356;2023-04-10T02:40:59;9.07;;;8.17;;
49998;SDS011;68071;45.062;7.356;2023-04-10T02:44:04;9.50;;;8.57;;
49998;SDS011;68071;45.062;7.356;2023-04-10T02:47:09;10.13;;;9.13;;
49998;SDS011;68071;45.062;7.356;2023-04-10T02:50:16;9.43;;;8.52;;
49998;SDS011;68071;45.062;7.356;2023-04-10T02:53:22;10.40;;;8.90;;
49998;SDS011;68071;45.062;7.356;2023-04-10T02:56:33;8.55;;;7.75;;
49998;SDS011;68071;45.062;7.356;2023-04-10T02:59:37;8.75;;;7.95;;
49998;SDS011;68071;45.062;7.356;2023-04-10T03:02:43;8.80;;;8.00;;
49998;SDS011;68071;45.062;7.356;2023-04-10T03:05:53;9.00;;;8.18;;
49998;SDS011;68071;45.062;7.356;2023-04-10T03:09:02;9.65;;;8.75;;
49998;SDS011;68071;45.062;7.356;2023-04-10T03:12:07;9.55;;;8.70;;
49998;SDS011;68071;45.062;7.356;2023-04-10T03:15:11;9.35;;;8.52;;
49998;SDS011;68071;45.062;7.356;2023-04-10T03:18:15;9.65;;;8.75;;
49998;SDS011;68071;45.062;7.356;2023-04-10T03:24:26;10.40;;;9.50;;
49998;SDS011;68071;45.062;7.356;2023-04-10T03:27:30;9.75;;;8.85;;
49998;SDS011;68071;45.062;7.356;2023-04-10T03:30:37;9.27;;;8.40;;
49998;SDS011;68071;45.062;7.356;2023-04-10T03:33:41;10.45;;;9.52;;
49998;SDS011;68071;45.062;7.356;2023-04-10T03:36:45;12.00;;;9.00;;
49998;SDS011;68071;45.062;7.356;2023-04-10T03:42:55;9.43;;;8.63;;
49998;SDS011;68071;45.062;7.356;2023-04-10T03:45:59;10.25;;;9.35;;
49998;SDS011;68071;45.062;7.356;2023-04-10T03:49:04;10.57;;;9.57;;
49998;SDS011;68071;45.062;7.356;2023-04-10T03:52:10;10.38;;;9.38;;
49998;SDS011;68071;45.062;7.356;2023-04-10T03:55:15;10.18;;;9.13;;
49998;SDS011;68071;45.062;7.356;2023-04-10T03:58:23;9.38;;;8.45;;
49998;SDS011;68071;45.062;7.356;2023-04-10T04:01:29;9.00;;;8.20;;
49998;SDS011;68071;45.062;7.356;2023-04-10T04:04:43;8.88;;;7.75;;
49998;SDS011;68071;45.062;7.356;2023-04-10T04:08:06;7.88;;;7.18;;
49998;SDS011;68071;45.062;7.356;2023-04-10T04:11:16;8.63;;;7.80;;
49998;SDS011;68071;45.062;7.356;2023-04-10T04:14:28;9.82;;;8.85;;
49998;SDS011;68071;45.062;7.356;2023-04-10T04:17:50;9.45;;;8.57;;
49998;SDS011;68071;45.062;7.356;2023-04-10T04:21:16;9.63;;;8.73;;
49998;SDS011;68071;45.062;7.356;2023-04-10T04:24:40;8.75;;;7.95;;
49998;SDS011;68071;45.062;7.356;2023-04-10T04:28:03;8.05;;;7.35;;
49998;SDS011;68071;45.062;7.356;2023-04-10T04:31:12;8.00;;;7.20;;
49998;SDS011;68071;45.062;7.356;2023-04-10T04:34:42;9.73;;;8.80;;
49998;SDS011;68071;45.062;7.356;2023-04-10T04:37:59;9.50;;;8.60;;
49998;SDS011;68071;45.062;7.356;2023-04-10T04:41:03;9.32;;;8.43;;
49998;SDS011;68071;45.062;7.356;2023-04-10T04:44:33;9.63;;;8.73;;
49998;SDS011;68071;45.062;7.356;2023-04-10T04:47:56;9.65;;;8.75;;
49998;SDS011;68071;45.062;7.356;2023-04-10T04:51:29;9.52;;;8.65;;
49998;SDS011;68071;45.062;7.356;2023-04-10T04:54:43;8.93;;;8.13;;
49998;SDS011;68071;45.062;7.356;2023-04-10T04:58:16;7.75;;;6.80;;
49998;SDS011;68071;45.062;7.356;2023-04-10T05:01:39;7.82;;;7.13;;
49998;SDS011;68071;45.062;7.356;2023-04-10T05:04:54;8.27;;;7.57;;
49998;SDS011;68071;45.062;7.356;2023-04-10T05:08:27;8.30;;;7.60;;
49998;SDS011;68071;45.062;7.356;2023-04-10T05:11:34;9.65;;;7.53;;
49998;SDS011;68071;45.062;7.356;2023-04-10T05:14:55;9.10;;;8.20;;
49998;SDS011;68071;45.062;7.356;2023-04-10T05:18:12;8.45;;;7.75;;
49998;SDS011;68071;45.062;7.356;2023-04-10T05:21:36;9.48;;;7.28;;
49998;SDS011;68071;45.062;7.356;2023-04-10T05:24:59;7.88;;;7.18;;
49998;SDS011;68071;45.062;7.356;2023-04-10T05:28:16;7.80;;;7.00;;
49998;SDS011;68071;45.062;7.356;2023-04-10T05:31:46;7.95;;;7.07;;
49998;SDS011;68071;45.062;7.356;2023-04-10T05:35:10;7.85;;;7.05;;
49998;SDS011;68071;45.062;7.356;2023-04-10T05:38:23;7.95;;;7.20;;
49998;SDS011;68071;45.062;7.356;2023-04-10T05:41:45;9.20;;;8.35;;
49998;SDS011;68071;45.062;7.356;2023-04-10T05:45:01;7.68;;;6.97;;
49998;SDS011;68071;45.062;7.356;2023-04-10T05:48:16;9.43;;;8.52;;
49998;SDS011;68071;45.062;7.356;2023-04-10T05:51:49;9.13;;;8.23;;
49998;SDS011;68071;45.062;7.356;2023-04-10T05:55:13;8.45;;;7.72;;
49998;SDS011;68071;45.062;7.356;2023-04-10T05:58:18;9.88;;;8.98;;
49998;SDS011;68071;45.062;7.356;2023-04-10T06:01:42;8.80;;;8.00;;
49998;SDS011;68071;45.062;7.356;2023-04-10T06:04:47;9.05;;;8.20;;
49998;SDS011;68071;45.062;7.356;2023-04-10T06:07:52;9.38;;;8.48;;
49998;SDS011;68071;45.062;7.356;2023-04-10T06:10:56;9.80;;;8.90;;
49998;SDS011;68071;45.062;7.356;2023-04-10T06:14:01;8.60;;;7.80;;
49998;SDS011;68071;45.062;7.356;2023-04-10T06:17:12;9.02;;;8.20;;
49998;SDS011;68071;45.062;7.356;2023-04-10T06:20:18;9.52;;;8.63;;
49998;SDS011;68071;45.062;7.356;2023-04-10T06:23:22;9.32;;;8.43;;
49998;SDS011;68071;45.062;7.356;2023-04-10T06:26:26;9.38;;;8.48;;
49998;SDS011;68071;45.062;7.356;2023-04-10T06:29:31;10.40;;;9.38;;
49998;SDS011;68071;45.062;7.356;2023-04-10T06:32:35;8.68;;;7.50;;
49998;SDS011;68071;45.062;7.356;2023-04-10T06:35:39;7.72;;;6.90;;
49998;SDS011;68071;45.062;7.356;2023-04-10T06:38:44;7.22;;;6.53;;
49998;SDS011;68071;45.062;7.356;2023-04-10T06:41:48;6.43;;;5.82;;
49998;SDS011;68071;45.062;7.356;2023-04-10T06:45:06;6.60;;;6.00;;
49998;SDS011;68071;45.062;7.356;2023-04-10T06:48:11;7.07;;;6.23;;
49998;SDS011;68071;45.062;7.356;2023-04-10T06:51:15;8.07;;;6.70;;
49998;SDS011;68071;45.062;7.356;2023-04-10T06:54:19;6.80;;;6.20;;
49998;SDS011;68071;45.062;7.356;2023-04-10T06:57:24;5.63;;;5.13;;
49998;SDS011;68071;45.062;7.356;2023-04-10T07:00:28;6.47;;;5.85;;
49998;SDS011;68071;45.062;7.356;2023-04-10T07:03:33;6.10;;;5.50;;
49998;SDS011;68071;45.062;7.356;2023-04-10T07:06:37;6.20;;;5.10;;
49998;SDS011;68071;45.062;7.356;2023-04-10T07:09:42;5.10;;;4.60;;
49998;SDS011;68071;45.062;7.356;2023-04-10T07:12:46;4.97;;;4.43;;
49998;SDS011;68071;45.062;7.356;2023-04-10T07:15:50;5.50;;;4.93;;
49998;SDS011;68071;45.062;7.356;2023-04-10T07:18:54;5.18;;;4.68;;
49998;SDS011;68071;45.062;7.356;2023-04-10T07:21:59;4.57;;;4.18;;
49998;SDS011;68071;45.062;7.356;2023-04-10T07:25:03;4.83;;;4.30;;
49998;SDS011;68071;45.062;7.356;2023-04-10T07:31:14;4.30;;;3.90;;
49998;SDS011;68071;45.062;7.356;2023-04-10T07:34:18;4.75;;;4.25;;
49998;SDS011;68071;45.062;7.356;2023-04-10T07:37:21;5.10;;;3.90;;
49998;SDS011;68071;45.062;7.356;2023-04-10T07:40:25;4.32;;;3.92;;
49998;SDS011;68071;45.062;7.356;2023-04-10T07:43:29;5.25;;;3.92;;
49998;SDS011;68071;45.062;7.356;2023-04-10T07:46:34;5.15;;;4.20;;
49998;SDS011;68071;45.062;7.356;2023-04-10T07:49:38;4.25;;;3.85;;
49998;SDS011;68071;45.062;7.356;2023-04-10T07:52:42;4.32;;;3.92;;
49998;SDS011;68071;45.062;7.356;2023-04-10T07:55:48;4.32;;;3.90;;
49998;SDS011;68071;45.062;7.356;2023-04-10T07:58:52;8.00;;;4.60;;
49998;SDS011;68071;45.062;7.356;2023-04-10T08:01:56;4.00;;;3.60;;
49998;SDS011;68071;45.062;7.356;2023-04-10T08:05:01;4.38;;;3.97;;
49998;SDS011;68071;45.062;7.356;2023-04-10T08:08:04;5.22;;;4.00;;
49998;SDS011;68071;45.062;7.356;2023-04-10T08:11:22;3.90;;;3.50;;
49998;SDS011;68071;45.062;7.356;2023-04-10T08:14:27;4.47;;;4.00;;
49998;SDS011;68071;45.062;7.356;2023-04-10T08:17:31;4.53;;;4.13;;
49998;SDS011;68071;45.062;7.356;2023-04-10T08:20:35;4.05;;;3.72;;
49998;SDS011;68071;45.062;7.356;2023-04-10T08:23:39;4.78;;;4.38;;
49998;SDS011;68071;45.062;7.356;2023-04-10T08:26:44;4.78;;;4.22;;
49998;SDS011;68071;45.062;7.356;2023-04-10T08:29:48;5.00;;;4.22;;
49998;SDS011;68071;45.062;7.356;2023-04-10T08:32:52;4.07;;;3.67;;
49998;SDS011;68071;45.062;7.356;2023-04-10T08:35:57;4.97;;;3.97;;
49998;SDS011;68071;45.062;7.356;2023-04-10T08:39:00;5.20;;;4.07;;
49998;SDS011;68071;45.062;7.356;2023-04-10T08:42:05;4.85;;;4.25;;
49998;SDS011;68071;45.062;7.356;2023-04-10T08:45:10;4.53;;;4.13;;
49998;SDS011;68071;45.062;7.356;2023-04-10T08:48:14;4.80;;;3.97;;
49998;SDS011;68071;45.062;7.356;2023-04-10T08:51:21;4.60;;;3.53;;
49998;SDS011;68071;45.062;7.356;2023-04-10T08:54:37;4.88;;;4.40;;
49998;SDS011;68071;45.062;7.356;2023-04-10T08:57:43;4.18;;;3.78;;
49998;SDS011;68071;45.062;7.356;2023-04-10T09:00:49;4.20;;;3.80;;
49998;SDS011;68071;45.062;7.356;2023-04-10T09:03:54;4.50;;;4.10;;
49998;SDS011;68071;45.062;7.356;2023-04-10T09:06:58;8.48;;;5.15;;
49998;SDS011;68071;45.062;7.356;2023-04-10T09:10:03;4.60;;;4.20;;
49998;SDS011;68071;45.062;7.356;2023-04-10T09:13:08;5.72;;;4.78;;
49998;SDS011;68071;45.062;7.356;2023-04-10T09:16:12;6.05;;;5.13;;
49998;SDS011;68071;45.062;7.356;2023-04-10T09:19:32;5.10;;;4.60;;
49998;SDS011;68071;45.062;7.356;2023-04-10T09:22:37;5.43;;;4.63;;
49998;SDS011;68071;45.062;7.356;2023-04-10T09:25:41;6.00;;;5.03;;
49998;SDS011;68071;45.062;7.356;2023-04-10T09:32:00;6.60;;;5.88;;
49998;SDS011;68071;45.062;7.356;2023-04-10T09:35:04;7.38;;;5.32;;
49998;SDS011;68071;45.062;7.356;2023-04-10T09:38:13;6.32;;;5.20;;
49998;SDS011;68071;45.062;7.356;2023-04-10T09:41:21;6.25;;;5.65;;
49998;SDS011;68071;45.062;7.356;2023-04-10T09:44:32;4.90;;;4.40;;
49998;SDS011;68071;45.062;7.356;2023-04-10T09:47:40;5.22;;;4.72;;
49998;SDS011;68071;45.062;7.356;2023-04-10T09:50:44;6.68;;;5.03;;
49998;SDS011;68071;45.062;7.356;2023-04-10T09:53:48;5.80;;;5.30;;
49998;SDS011;68071;45.062;7.356;2023-04-10T09:56:53;5.47;;;4.95;;
49998;SDS011;68071;45.062;7.356;2023-04-10T09:59:58;5.35;;;4.75;;
49998;SDS011;68071;45.062;7.356;2023-04-10T10:03:03;6.90;;;6.20;;
49998;SDS011;68071;45.062;7.356;2023-04-10T10:06:10;6.88;;;6.18;;
49998;SDS011;68071;45.062;7.356;2023-04-10T10:09:15;7.68;;;6.65;;
49998;SDS011;68071;45.062;7.356;2023-04-10T10:12:23;6.63;;;5.93;;
49998;SDS011;68071;45.062;7.356;2023-04-10T10:16:11;6.03;;;5.43;;
49998;SDS011;68071;45.062;7.356;2023-04-10T10:19:41;6.18;;;5.57;;
49998;SDS011;68071;45.062;7.356;2023-04-10T10:22:53;7.63;;;5.55;;
49998;SDS011;68071;45.062;7.356;2023-04-10T10:25:59;6.30;;;5.70;;
49998;SDS011;68071;45.062;7.356;2023-04-10T10:29:04;5.97;;;5.38;;
49998;SDS011;68071;45.062;7.356;2023-04-10T10:32:13;6.38;;;5.38;;
49998;SDS011;68071;45.062;7.356;2023-04-10T10:35:20;6.82;;;4.90;;
49998;SDS011;68071;45.062;7.356;2023-04-10T10:38:24;5.93;;;5.32;;
49998;SDS011;68071;45.062;7.356;2023-04-10T10:41:31;5.57;;;5.07;;
49998;SDS011;68071;45.062;7.356;2023-04-10T10:47:51;5.88;;;5.07;;
49998;SDS011;68071;45.062;7.356;2023-04-10T10:50:57;5.10;;;4.60;;
49998;SDS011;68071;45.062;7.356;2023-04-10T10:54:03;5.55;;;4.85;;
49998;SDS011;68071;45.062;7.356;2023-04-10T10:57:44;6.47;;;5.07;;
49998;SDS011;68071;45.062;7.356;2023-04-10T11:03:53;5.72;;;5.13;;
49998;SDS011;68071;45.062;7.356;2023-04-10T11:06:57;6.85;;;5.18;;
49998;SDS011;68071;45.062;7.356;2023-04-10T11:10:01;6.85;;;5.47;;
49998;SDS011;68071;45.062;7.356;2023-04-10T11:13:15;5.78;;;5.20;;
49998;SDS011;68071;45.062;7.356;2023-04-10T11:16:21;6.33;;;5.50;;
49998;SDS011;68071;45.062;7.356;2023-04-10T11:19:26;6.68;;;5.45;;
49998;SDS011;68071;45.062;7.356;2023-04-10T11:22:29;6.20;;;5.40;;
49998;SDS011;68071;45.062;7.356;2023-04-10T11:28:51;5.88;;;5.28;;
49998;SDS011;68071;45.062;7.356;2023-04-10T11:31:56;6.70;;;5.95;;
49998;SDS011;68071;45.062;7.356;2023-04-10T11:35:01;6.55;;;5.95;;
49998;SDS011;68071;45.062;7.356;2023-04-10T11:38:13;22.92;;;16.90;;
49998;SDS011;68071;45.062;7.356;2023-04-10T11:41:18;6.63;;;5.93;;
49998;SDS011;68071;45.062;7.356;2023-04-10T11:44:32;6.60;;;5.97;;
49998;SDS011;68071;45.062;7.356;2023-04-10T11:47:49;7.97;;;5.63;;
49998;SDS011;68071;45.062;7.356;2023-04-10T11:50:54;6.55;;;5.95;;
49998;SDS011;68071;45.062;7.356;2023-04-10T11:54:03;7.10;;;5.40;;
49998;SDS011;68071;45.062;7.356;2023-04-10T11:57:11;7.13;;;6.47;;
49998;SDS011;68071;45.062;7.356;2023-04-10T12:00:21;8.07;;;6.60;;
49998;SDS011;68071;45.062;7.356;2023-04-10T12:03:33;7.80;;;5.82;;
49998;SDS011;68071;45.062;7.356;2023-04-10T12:06:45;7.23;;;6.50;;
49998;SDS011;68071;45.062;7.356;2023-04-10T12:09:57;6.60;;;5.97;;
49998;SDS011;68071;45.062;7.356;2023-04-10T12:13:01;7.10;;;6.40;;
49998;SDS011;68071;45.062;7.356;2023-04-10T12:16:05;6.97;;;6.13;;
49998;SDS011;68071;45.062;7.356;2023-04-10T12:19:12;8.15;;;7.10;;
49998;SDS011;68071;45.062;7.356;2023-04-10T12:22:18;7.30;;;6.60;;
49998;SDS011;68071;45.062;7.356;2023-04-10T12:25:22;6.93;;;6.22;;
49998;SDS011;68071;45.062;7.356;2023-04-10T12:28:26;6.20;;;5.55;;
49998;SDS011;68071;45.062;7.356;2023-04-10T12:31:30;8.77;;;6.82;;
49998;SDS011;68071;45.062;7.356;2023-04-10T12:34:37;6.70;;;6.10;;
49998;SDS011;68071;45.062;7.356;2023-04-10T12:37:50;7.25;;;6.43;;
49998;SDS011;68071;45.062;7.356;2023-04-10T12:44:08;7.72;;;5.95;;
49998;SDS011;68071;45.062;7.356;2023-04-10T12:47:13;7.80;;;6.07;;
49998;SDS011;68071;45.062;7.356;2023-04-10T12:50:18;7.60;;;6.18;;
49998;SDS011;68071;45.062;7.356;2023-04-10T12:53:25;7.10;;;6.40;;
49998;SDS011;68071;45.062;7.356;2023-04-10T12:56:39;8.20;;;7.32;;
49998;SDS011;68071;45.062;7.356;2023-04-10T12:59:44;7.57;;;6.43;;
49998;SDS011;68071;45.062;7.356;2023-04-10T13:02:48;7.50;;;6.70;;
49998;SDS011;68071;45.062;7.356;2023-04-10T13:05:52;7.82;;;6.45;;
49998;SDS011;68071;45.062;7.356;2023-04-10T13:08:56;7.10;;;6.40;;
49998;SDS011;68071;45.062;7.356;2023-04-10T13:12:00;11.40;;;7.60;;
49998;SDS011;68071;45.062;7.356;2023-04-10T13:15:06;7.30;;;6.20;;
49998;SDS011;68071;45.062;7.356;2023-04-10T13:18:10;6.93;;;6.32;;
49998;SDS011;68071;45.062;7.356;2023-04-10T13:21:14;6.85;;;6.15;;
49998;SDS011;68071;45.062;7.356;2023-04-10T13:24:22;7.10;;;6.40;;
49998;SDS011;68071;45.062;7.356;2023-04-10T13:27:26;6.60;;;5.90;;
49998;SDS011;68071;45.062;7.356;2023-04-10T13:30:30;7.85;;;6.47;;
49998;SDS011;68071;45.062;7.356;2023-04-10T13:33:34;7.47;;;6.20;;
49998;SDS011;68071;45.062;7.356;2023-04-10T13:36:37;6.90;;;6.30;;
49998;SDS011;68071;45.062;7.356;2023-04-10T13:39:41;6.82;;;5.82;;
49998;SDS011;68071;45.062;7.356;2023-04-10T13:42:46;7.50;;;6.40;;
49998;SDS011;68071;45.062;7.356;2023-04-10T13:45:51;6.50;;;5.50;;
49998;SDS011;68071;45.062;7.356;2023-04-10T13:48:55;8.70;;;6.32;;
49998;SDS011;68071;45.062;7.356;2023-04-10T13:51:59;6.30;;;5.70;;
49998;SDS011;68071;45.062;7.356;2023-04-10T13:55:03;10.55;;;5.57;;
49998;SDS011;68071;45.062;7.356;2023-04-10T13:58:09;7.25;;;6.20;;
49998;SDS011;68071;45.062;7.356;2023-04-10T14:01:16;10.60;;;6.57;;
49998;SDS011;68071;45.062;7.356;2023-04-10T14:04:20;6.93;;;5.90;;
49998;SDS011;68071;45.062;7.356;2023-04-10T14:07:23;8.00;;;6.10;;
49998;SDS011;68071;45.062;7.356;2023-04-10T14:10:27;6.70;;;6.03;;
49998;SDS011;68071;45.062;7.356;2023-04-10T14:13:31;6.72;;;6.03;;
49998;SDS011;68071;45.062;7.356;2023-04-10T14:16:35;7.03;;;5.75;;
49998;SDS011;68071;45.062;7.356;2023-04-10T14:19:40;6.32;;;5.70;;
49998;SDS011;68071;45.062;7.356;2023-04-10T14:22:44;6.20;;;5.60;;
49998;SDS011;68071;45.062;7.356;2023-04-10T14:25:50;10.25;;;5.80;;
49998;SDS011;68071;45.062;7.356;2023-04-10T14:28:54;7.43;;;6.05;;
49998;SDS011;68071;45.062;7.356;2023-04-10T14:31:58;6.68;;;5.95;;
49998;SDS011;68071;45.062;7.356;2023-04-10T14:35:01;6.43;;;5.82;;
49998;SDS011;68071;45.062;7.356;2023-04-10T14:38:05;7.95;;;6.03;;
49998;SDS011;68071;45.062;7.356;2023-04-10T14:41:10;7.85;;;6.10;;
49998;SDS011;68071;45.062;7.356;2023-04-10T14:44:14;5.78;;;5.10;;
49998;SDS011;68071;45.062;7.356;2023-04-10T14:47:18;7.43;;;6.40;;
49998;SDS011;68071;45.062;7.356;2023-04-10T14:50:22;7.20;;;6.20;;
49998;SDS011;68071;45.062;7.356;2023-04-10T14:53:26;6.90;;;5.82;;
49998;SDS011;68071;45.062;7.356;2023-04-10T14:56:30;6.88;;;6.05;;
49998;SDS011;68071;45.062;7.356;2023-04-10T14:59:35;6.32;;;5.72;;
49998;SDS011;68071;45.062;7.356;2023-04-10T15:02:39;6.95;;;5.95;;
49998;SDS011;68071;45.062;7.356;2023-04-10T15:05:43;8.13;;;6.22;;
49998;SDS011;68071;45.062;7.356;2023-04-10T15:08:47;6.90;;;5.80;;
49998;SDS011;68071;45.062;7.356;2023-04-10T15:11:51;7.93;;;6.40;;
49998;SDS011;68071;45.062;7.356;2023-04-10T15:14:55;6.32;;;5.72;;
49998;SDS011;68071;45.062;7.356;2023-04-10T15:17:59;6.60;;;6.00;;
49998;SDS011;68071;45.062;7.356;2023-04-10T15:21:03;6.53;;;5.93;;
49998;SDS011;68071;45.062;7.356;2023-04-10T15:24:08;6.30;;;5.70;;
49998;SDS011;68071;45.062;7.356;2023-04-10T15:27:12;6.78;;;6.07;;
49998;SDS011;68071;45.062;7.356;2023-04-10T15:30:16;6.10;;;5.50;;
49998;SDS011;68071;45.062;7.356;2023-04-10T15:33:20;6.70;;;5.93;;
49998;SDS011;68071;45.062;7.356;2023-04-10T15:36:24;9.18;;;6.63;;
49998;SDS011;68071;45.062;7.356;2023-04-10T15:39:28;7.68;;;6.55;;
49998;SDS011;68071;45.062;7.356;2023-04-10T15:42:33;8.05;;;6.15;;
49998;SDS011;68071;45.062;7.356;2023-04-10T15:45:37;6.38;;;5.78;;
49998;SDS011;68071;45.062;7.356;2023-04-10T15:48:41;6.03;;;5.43;;
49998;SDS011;68071;45.062;7.356;2023-04-10T15:51:45;6.70;;;6.00;;
49998;SDS011;68071;45.062;7.356;2023-04-10T15:54:49;9.80;;;6.30;;
49998;SDS011;68071;45.062;7.356;2023-04-10T15:57:56;6.10;;;5.50;;
49998;SDS011;68071;45.062;7.356;2023-04-10T16:01:00;6.88;;;6.28;;
49998;SDS011;68071;45.062;7.356;2023-04-10T16:04:04;6.63;;;5.88;;
49998;SDS011;68071;45.062;7.356;2023-04-10T16:07:08;9.65;;;6.45;;
49998;SDS011;68071;45.062;7.356;2023-04-10T16:10:12;6.80;;;6.10;;
49998;SDS011;68071;45.062;7.356;2023-04-10T16:13:16;6.97;;;6.18;;
49998;SDS011;68071;45.062;7.356;2023-04-10T16:16:20;7.22;;;6.38;;
49998;SDS011;68071;45.062;7.356;2023-04-10T16:19:24;6.20;;;5.05;;
49998;SDS011;68071;45.062;7.356;2023-04-10T16:22:27;6.15;;;5.47;;
49998;SDS011;68071;45.062;7.356;2023-04-10T16:25:31;6.00;;;5.40;;
49998;SDS011;68071;45.062;7.356;2023-04-10T16:28:35;6.55;;;5.95;;
49998;SDS011;68071;45.062;7.356;2023-04-10T16:31:39;6.88;;;5.78;;
49998;SDS011;68071;45.062;7.356;2023-04-10T16:34:43;6.55;;;5.85;;
49998;SDS011;68071;45.062;7.356;2023-04-10T16:37:48;6.60;;;6.00;;
49998;SDS011;68071;45.062;7.356;2023-04-10T16:40:52;6.65;;;5.80;;
49998;SDS011;68071;45.062;7.356;2023-04-10T16:43:56;7.32;;;6.00;;
49998;SDS011;68071;45.062;7.356;2023-04-10T16:47:00;7.43;;;6.60;;
49998;SDS011;68071;45.062;7.356;2023-04-10T16:50:05;6.68;;;6.00;;
49998;SDS011;68071;45.062;7.356;2023-04-10T16:53:11;8.25;;;6.18;;
49998;SDS011;68071;45.062;7.356;2023-04-10T16:56:15;7.32;;;6.55;;
49998;SDS011;68071;45.062;7.356;2023-04-10T16:59:19;6.97;;;6.20;;
49998;SDS011;68071;45.062;7.356;2023-04-10T17:02:23;7.97;;;6.40;;
49998;SDS011;68071;45.062;7.356;2023-04-10T17:05:34;7.17;;;6.47;;
49998;SDS011;68071;45.062;7.356;2023-04-10T17:08:41;7.07;;;6.38;;
49998;SDS011;68071;45.062;7.356;2023-04-10T17:11:44;8.90;;;7.43;;
49998;SDS011;68071;45.062;7.356;2023-04-10T17:14:50;7.35;;;6.65;;
49998;SDS011;68071;45.062;7.356;2023-04-10T17:17:54;6.85;;;6.15;;
49998;SDS011;68071;45.062;7.356;2023-04-10T17:20:58;7.22;;;6.53;;
49998;SDS011;68071;45.062;7.356;2023-04-10T17:24:02;6.28;;;5.68;;
49998;SDS011;68071;45.062;7.356;2023-04-10T17:27:06;7.75;;;6.95;;
49998;SDS011;68071;45.062;7.356;2023-04-10T17:30:11;6.97;;;5.47;;
49998;SDS011;68071;45.062;7.356;2023-04-10T17:33:15;7.38;;;6.55;;
49998;SDS011;68071;45.062;7.356;2023-04-10T17:36:19;7.85;;;6.88;;
49998;SDS011;68071;45.062;7.356;2023-04-10T17:39:24;7.03;;;6.32;;
49998;SDS011;68071;45.062;7.356;2023-04-10T17:42:28;8.95;;;7.47;;
49998;SDS011;68071;45.062;7.356;2023-04-10T17:45:36;7.47;;;6.72;;
49998;SDS011;68071;45.062;7.356;2023-04-10T17:48:41;8.48;;;7.55;;
49998;SDS011;68071;45.062;7.356;2023-04-10T17:51:45;8.88;;;6.07;;
49998;SDS011;68071;45.062;7.356;2023-04-10T17:54:49;7.93;;;6.47;;
49998;SDS011;68071;45.062;7.356;2023-04-10T17:57:55;6.88;;;6.13;;
49998;SDS011;68071;45.062;7.356;2023-04-10T18:01:00;8.98;;;7.70;;
49998;SDS011;68071;45.062;7.356;2023-04-10T18:04:05;7.68;;;6.85;;
49998;SDS011;68071;45.062;7.356;2023-04-10T18:07:09;9.13;;;6.75;;
49998;SDS011;68071;45.062;7.356;2023-04-10T18:10:13;7.05;;;6.43;;
49998;SDS011;68071;45.062;7.356;2023-04-10T18:13:18;8.25;;;7.35;;
49998;SDS011;68071;45.062;7.356;2023-04-10T18:16:22;8.05;;;7.20;;
49998;SDS011;68071;45.062;7.356;2023-04-10T18:19:27;9.40;;;8.50;;
49998;SDS011;68071;45.062;7.356;2023-04-10T18:22:33;8.52;;;7.72;;
49998;SDS011;68071;45.062;7.356;2023-04-10T18:25:37;9.90;;;8.30;;
49998;SDS011;68071;45.062;7.356;2023-04-10T18:28:40;8.45;;;7.68;;
49998;SDS011;68071;45.062;7.356;2023-04-10T18:31:45;9.60;;;8.70;;
49998;SDS011;68071;45.062;7.356;2023-04-10T18:34:49;8.00;;;7.00;;
49998;SDS011;68071;45.062;7.356;2023-04-10T18:37:53;7.28;;;6.57;;
49998;SDS011;68071;45.062;7.356;2023-04-10T18:40:57;6.75;;;6.05;;
49998;SDS011;68071;45.062;7.356;2023-04-10T18:44:02;6.50;;;5.90;;
49998;SDS011;68071;45.062;7.356;2023-04-10T18:47:06;6.78;;;5.80;;
49998;SDS011;68071;45.062;7.356;2023-04-10T18:50:10;7.80;;;6.70;;
49998;SDS011;68071;45.062;7.356;2023-04-10T18:53:14;6.43;;;5.63;;
49998;SDS011;68071;45.062;7.356;2023-04-10T18:56:18;7.55;;;6.00;;
49998;SDS011;68071;45.062;7.356;2023-04-10T18:59:22;6.72;;;6.03;;
49998;SDS011;68071;45.062;7.356;2023-04-10T19:02:26;8.55;;;6.47;;
49998;SDS011;68071;45.062;7.356;2023-04-10T19:05:29;6.95;;;6.35;;
49998;SDS011;68071;45.062;7.356;2023-04-10T19:08:35;6.93;;;6.22;;
49998;SDS011;68071;45.062;7.356;2023-04-10T19:11:40;7.78;;;5.80;;
49998;SDS011;68071;45.062;7.356;2023-04-10T19:14:45;7.72;;;6.75;;
49998;SDS011;68071;45.062;7.356;2023-04-10T19:17:52;8.88;;;7.28;;
49998;SDS011;68071;45.062;7.356;2023-04-10T19:20:57;8.65;;;7.43;;